Time;durP1;ratioP1;P1;durP2;ratioP2;P2;SDS_P1;SDS_P2;PMS_P1;PMS_P2;Temp;Humidity;BMP_temperature;BMP_pressure;BME280_temperature;BME280_humidity;BME280_pressure;Samples;Min_cycle;Max_cycle;Signal;HPM_P1;HPM_P2
2021/12/31 00:00:51;;;;;;;2.30;1.47;;;12.70;1.00;;;;;;5013109;28;20455;-77
2021/12/31 00:03:33;;;;;;;1.20;1.10;;;12.70;1.00;;;;;;5003339;28;20918;-77
2021/12/31 00:05:59;;;;;;;3.00;1.93;;;12.70;1.00;;;;;;5008594;28;20433;-77
2021/12/31 00:08:27;;;;;;;1.70;1.60;;;12.70;1.00;;;;;;5013497;28;20404;-76
2021/12/31 00:11:04;;;;;;;1.73;1.20;;;12.70;1.00;;;;;;5014010;28;20161;-76
2021/12/31 00:13:57;;;;;;;1.60;1.50;;;12.70;1.00;;;;;;4998315;28;20455;-76
2021/12/31 00:16:28;;;;;;;1.90;1.80;;;12.70;1.00;;;;;;5008688;28;20491;-76
2021/12/31 00:19:22;;;;;;;3.57;1.30;;;12.60;1.00;;;;;;5017044;28;20439;-76
2021/12/31 00:21:59;;;;;;;7.93;1.90;;;12.60;1.00;;;;;;5016699;28;20525;-76
2021/12/31 00:24:28;;;;;;;2.57;2.13;;;12.60;1.00;;;;;;5016928;28;20871;-77
2021/12/31 00:26:57;;;;;;;5.87;1.57;;;12.60;1.00;;;;;;5003624;28;20434;-77
2021/12/31 00:29:39;;;;;;;4.27;1.53;;;12.60;1.00;;;;;;5017136;28;20872;-77
2021/12/31 00:32:21;;;;;;;1.83;1.40;;;12.70;1.00;;;;;;5004543;28;20949;-76
2021/12/31 00:34:52;;;;;;;2.30;1.67;;;12.70;1.00;;;;;;5012119;28;20395;-76
2021/12/31 00:37:36;;;;;;;1.63;1.03;;;12.70;1.00;;;;;;4997524;28;20459;-77
2021/12/31 00:40:05;;;;;;;2.27;1.47;;;12.70;1.00;;;;;;5016885;28;20419;-76
2021/12/31 00:42:30;;;;;;;1.60;1.17;;;12.70;1.00;;;;;;5010367;28;20437;-77
2021/12/31 00:44:58;;;;;;;1.20;1.20;;;12.80;1.00;;;;;;5004227;28;20398;-76
2021/12/31 00:47:33;;;;;;;1.20;1.10;;;12.90;1.00;;;;;;5005074;28;20265;-77
2021/12/31 00:49:59;;;;;;;1.27;1.17;;;13.00;1.00;;;;;;4996812;28;20399;-77
2021/12/31 00:52:34;;;;;;;3.03;1.50;;;13.00;1.00;;;;;;4997956;28;20452;-78
2021/12/31 00:55:05;;;;;;;1.20;1.10;;;13.00;1.00;;;;;;4997421;28;20626;-76
2021/12/31 00:57:34;;;;;;;1.10;1.10;;;13.10;1.00;;;;;;5000515;28;20412;-77
2021/12/31 01:00:00;;;;;;;2.03;1.47;;;13.10;1.00;;;;;;5016646;28;20374;-77
2021/12/31 01:02:34;;;;;;;1.50;0.97;;;13.20;1.00;;;;;;5015670;28;20401;-76
2021/12/31 01:05:00;;;;;;;1.00;0.90;;;13.20;1.00;;;;;;5007456;28;20905;-77
2021/12/31 01:07:34;;;;;;;2.13;1.03;;;13.30;1.00;;;;;;5008950;28;20455;-76
2021/12/31 01:10:01;;;;;;;0.80;0.80;;;13.30;1.00;;;;;;5016758;28;20181;-77
2021/12/31 01:12:41;;;;;;;3.17;1.40;;;13.20;1.00;;;;;;5014985;28;20459;-77
2021/12/31 01:15:11;;;;;;;2.60;1.03;;;13.30;1.00;;;;;;5008016;28;20408;-77
2021/12/31 01:18:18;;;;;;;1.97;1.20;;;13.30;1.00;;;;;;5016239;28;20447;-77
2021/12/31 01:20:51;;;;;;;6.43;1.23;;;13.40;1.00;;;;;;4996883;28;20482;-77
2021/12/31 01:23:35;;;;;;;3.63;1.27;;;13.40;1.00;;;;;;5011970;28;20734;-77
2021/12/31 01:26:04;;;;;;;2.53;1.10;;;13.40;1.00;;;;;;4996154;28;20416;-77
2021/12/31 01:28:29;;;;;;;1.07;1.07;;;13.40;1.00;;;;;;5014856;28;20921;-77
2021/12/31 01:30:55;;;;;;;3.27;1.70;;;13.50;1.00;;;;;;5016087;28;20408;-77
2021/12/31 01:33:22;;;;;;;2.50;1.77;;;13.50;1.00;;;;;;5014462;28;20208;-77
2021/12/31 01:35:58;;;;;;;7.20;1.27;;;13.50;1.00;;;;;;5015463;28;20176;-77
2021/12/31 01:38:29;;;;;;;1.43;1.30;;;13.50;1.00;;;;;;5016032;28;20426;-77
2021/12/31 01:41:04;;;;;;;7.10;1.30;;;13.40;1.00;;;;;;5015559;28;20397;-77
2021/12/31 01:43:34;;;;;;;1.57;1.17;;;13.40;1.00;;;;;;5003220;28;20755;-77
2021/12/31 01:46:06;;;;;;;2.27;1.30;;;13.50;1.00;;;;;;5014580;28;20391;-77
2021/12/31 01:51:22;;;;;;;4.17;2.10;;;13.60;1.00;;;;;;4996452;28;20384;-77
2021/12/31 01:53:48;;;;;;;1.40;1.30;;;13.60;1.00;;;;;;4996352;28;20495;-77
2021/12/31 01:56:33;;;;;;;1.00;1.00;;;13.60;1.00;;;;;;5015537;28;20415;-78
2021/12/31 01:58:58;;;;;;;4.10;1.50;;;13.60;1.00;;;;;;5015580;28;20419;-76
2021/12/31 02:01:35;;;;;;;3.33;1.60;;;13.60;1.00;;;;;;5014901;28;20419;-76
2021/12/31 02:04:05;;;;;;;6.30;1.90;;;13.60;1.00;;;;;;5013883;28;20728;-76
2021/12/31 02:06:51;;;;;;;1.33;1.10;;;13.60;1.00;;;;;;5014197;28;20486;-76
2021/12/31 02:09:17;;;;;;;6.13;1.60;;;13.70;1.00;;;;;;4994795;28;20421;-76
2021/12/31 02:11:54;;;;;;;2.00;1.30;;;13.70;1.00;;;;;;5012323;28;20488;-77
2021/12/31 02:14:21;;;;;;;3.23;1.27;;;13.60;1.00;;;;;;5010399;28;20248;-77
2021/12/31 02:17:09;;;;;;;4.10;1.50;;;13.70;1.00;;;;;;4997934;28;20498;-77
2021/12/31 02:20:06;;;;;;;1.40;1.30;;;13.60;1.00;;;;;;4995509;28;20952;-76
2021/12/31 02:22:39;;;;;;;0.90;0.90;;;13.60;1.00;;;;;;5005706;28;20405;-77
2021/12/31 02:25:10;;;;;;;1.80;1.30;;;13.60;1.00;;;;;;5013692;28;20783;-77
2021/12/31 02:27:52;;;;;;;0.97;0.97;;;13.60;1.00;;;;;;5014975;28;20402;-77
2021/12/31 02:30:46;;;;;;;2.23;1.60;;;13.60;1.00;;;;;;5002303;28;20398;-77
2021/12/31 02:33:16;;;;;;;1.33;1.23;;;13.60;1.00;;;;;;5014832;28;20538;-77
2021/12/31 02:36:16;;;;;;;3.07;1.30;;;13.60;1.00;;;;;;5002936;28;20436;-77
2021/12/31 02:38:45;;;;;;;3.67;1.67;;;13.60;1.00;;;;;;5000745;28;20421;-76
2021/12/31 02:41:16;;;;;;;1.80;1.70;;;13.60;1.00;;;;;;5035025;28;20405;-77
2021/12/31 02:43:52;;;;;;;5.50;1.43;;;13.60;1.00;;;;;;5034532;28;20381;-77
2021/12/31 02:46:34;;;;;;;2.20;1.23;;;13.60;1.00;;;;;;5019734;28;20485;-77
2021/12/31 02:49:41;;;;;;;4.83;1.43;;;13.60;1.00;;;;;;5014632;28;20374;-77
2021/12/31 02:52:15;;;;;;;2.80;1.10;;;13.50;1.00;;;;;;5027837;28;20459;-77
2021/12/31 02:55:00;;;;;;;5.00;1.80;;;13.60;1.00;;;;;;5033526;28;20411;-77
2021/12/31 02:57:34;;;;;;;5.23;2.00;;;13.60;1.00;;;;;;5023690;28;20509;-77
2021/12/31 03:00:21;;;;;;;1.10;0.90;;;13.70;1.00;;;;;;5027152;28;20443;-77
2021/12/31 03:03:01;;;;;;;1.37;1.27;;;13.60;1.00;;;;;;5034125;28;20426;-76
2021/12/31 03:05:29;;;;;;;2.30;1.43;;;13.60;1.00;;;;;;5033596;28;20516;-76
2021/12/31 03:07:57;;;;;;;1.67;1.00;;;13.60;1.00;;;;;;5033892;28;20398;-77
2021/12/31 03:10:26;;;;;;;1.40;1.30;;;13.50;1.00;;;;;;5017990;28;20410;-77
2021/12/31 03:12:59;;;;;;;1.63;1.37;;;13.60;1.00;;;;;;5024443;28;20524;-77
2021/12/31 03:15:41;;;;;;;1.20;1.10;;;13.50;1.00;;;;;;5008143;28;20955;-77
2021/12/31 03:18:11;;;;;;;5.13;1.50;;;13.50;1.00;;;;;;5033712;28;20477;-77
2021/12/31 03:20:56;;;;;;;2.37;1.40;;;13.50;1.00;;;;;;5033917;28;20454;-77
2021/12/31 03:23:34;;;;;;;2.30;1.20;;;13.50;1.00;;;;;;5033779;28;20381;-77
2021/12/31 03:26:34;;;;;;;1.63;1.53;;;13.50;1.00;;;;;;5025874;28;20397;-76
2021/12/31 03:29:10;;;;;;;2.27;1.37;;;13.60;1.00;;;;;;5017755;28;20438;-77
2021/12/31 03:31:40;;;;;;;2.63;1.60;;;13.50;1.00;;;;;;5029948;28;20538;-77
2021/12/31 03:34:22;;;;;;;2.70;1.57;;;13.50;1.00;;;;;;5006789;28;20822;-77
2021/12/31 03:36:52;;;;;;;1.40;1.30;;;13.40;1.00;;;;;;5024165;28;20423;-77
2021/12/31 03:39:22;;;;;;;2.70;1.70;;;13.50;1.00;;;;;;5033830;28;20971;-77
2021/12/31 03:41:47;;;;;;;1.80;1.50;;;13.50;1.00;;;;;;5033679;28;20427;-77
2021/12/31 03:44:22;;;;;;;6.50;2.00;;;13.40;1.00;;;;;;5030460;28;20479;-77
2021/12/31 03:46:52;;;;;;;2.90;1.53;;;13.40;1.00;;;;;;5022736;28;20179;-77
2021/12/31 03:49:45;;;;;;;4.40;1.50;;;13.40;1.00;;;;;;5023767;28;20803;-77
2021/12/31 03:52:16;;;;;;;3.43;1.80;;;13.40;1.00;;;;;;5029120;28;20501;-77
2021/12/31 03:54:42;;;;;;;3.73;1.80;;;13.40;1.00;;;;;;5020596;28;20423;-77
2021/12/31 03:57:21;;;;;;;6.33;2.00;;;13.40;1.00;;;;;;5018220;28;20371;-77
2021/12/31 04:00:10;;;;;;;2.40;1.90;;;13.30;1.00;;;;;;5009435;28;20568;-76
2021/12/31 04:02:46;;;;;;;1.33;1.20;;;13.30;1.00;;;;;;5037450;28;20860;-76
2021/12/31 04:05:11;;;;;;;2.37;1.70;;;13.30;1.00;;;;;;5030358;28;20426;-77
2021/12/31 04:07:40;;;;;;;2.50;2.07;;;13.30;1.00;;;;;;5019787;28;20744;-77
2021/12/31 04:10:10;;;;;;;2.53;1.43;;;13.30;1.00;;;;;;5036771;28;20168;-77
2021/12/31 04:12:52;;;;;;;2.10;1.63;;;13.30;1.00;;;;;;5036864;28;20962;-78
2021/12/31 04:15:18;;;;;;;1.70;1.60;;;13.30;1.00;;;;;;5032997;28;20739;-77
2021/12/31 04:17:44;;;;;;;1.83;1.70;;;13.30;1.00;;;;;;5017576;28;20372;-77
2021/12/31 04:20:18;;;;;;;2.17;1.97;;;13.30;1.00;;;;;;5029930;28;20448;-77
2021/12/31 04:22:52;;;;;;;5.80;1.50;;;13.20;1.00;;;;;;5028876;28;20171;-77
2021/12/31 04:25:18;;;;;;;2.93;1.67;;;13.10;1.00;;;;;;5032331;28;20435;-77
2021/12/31 04:27:44;;;;;;;1.50;1.40;;;13.10;1.00;;;;;;5037500;28;20469;-76
2021/12/31 04:30:16;;;;;;;5.23;2.00;;;13.00;1.00;;;;;;5037058;28;20476;-77
2021/12/31 04:32:45;;;;;;;2.33;1.70;;;12.90;1.00;;;;;;5036877;28;20458;-77
2021/12/31 04:35:28;;;;;;;4.33;2.00;;;12.80;1.00;;;;;;5025047;28;20880;-77
2021/12/31 04:37:53;;;;;;;3.87;2.00;;;12.80;1.00;;;;;;5036870;28;20389;-77
2021/12/31 04:40:22;;;;;;;1.63;1.53;;;12.80;1.00;;;;;;5036827;28;20838;-77
2021/12/31 04:43:09;;;;;;;2.03;1.83;;;12.70;1.00;;;;;;5037182;28;20200;-77
2021/12/31 04:45:46;;;;;;;2.90;2.00;;;12.70;1.00;;;;;;5018414;28;20492;-76
2021/12/31 04:48:33;;;;;;;4.60;1.83;;;12.70;1.00;;;;;;5024324;28;20883;-78
2021/12/31 04:50:59;;;;;;;1.97;1.80;;;12.60;1.00;;;;;;5036414;28;20411;-76
2021/12/31 04:53:28;;;;;;;3.37;1.90;;;12.60;1.00;;;;;;5007765;28;20434;-77
2021/12/31 04:55:53;;;;;;;2.87;2.00;;;12.50;1.00;;;;;;5029483;28;20259;-76
2021/12/31 04:58:19;;;;;;;3.30;1.80;;;12.50;1.00;;;;;;5017416;28;20399;-76
2021/12/31 05:00:46;;;;;;;4.07;2.10;;;12.50;1.00;;;;;;5015172;28;20226;-77
2021/12/31 05:03:16;;;;;;;4.53;1.80;;;12.40;1.00;;;;;;5036661;28;20180;-77
2021/12/31 05:05:46;;;;;;;2.57;2.00;;;12.40;1.00;;;;;;5031126;28;20432;-77
2021/12/31 05:08:12;;;;;;;2.57;1.97;;;12.30;1.00;;;;;;5016914;28;20458;-77
2021/12/31 05:10:46;;;;;;;2.70;2.30;;;12.30;1.00;;;;;;5016553;28;20400;-77
2021/12/31 05:13:22;;;;;;;4.23;2.60;;;12.20;1.00;;;;;;5019105;28;20502;-77
2021/12/31 05:15:53;;;;;;;2.80;2.00;;;12.20;1.00;;;;;;5021689;28;20420;-77
2021/12/31 05:19:03;;;;;;;3.20;2.27;;;12.20;1.00;;;;;;5036078;28;20465;-77
2021/12/31 05:21:30;;;;;;;2.90;2.30;;;12.20;1.00;;;;;;5030650;28;20441;-76
2021/12/31 05:23:58;;;;;;;3.33;2.17;;;12.20;1.00;;;;;;5036085;28;20407;-77
2021/12/31 05:26:51;;;;;;;8.70;2.50;;;12.30;1.00;;;;;;5000916;28;20427;-77
2021/12/31 05:29:35;;;;;;;2.33;1.90;;;12.30;1.00;;;;;;5018377;28;20796;-76
2021/12/31 05:32:10;;;;;;;4.87;2.10;;;12.30;1.00;;;;;;5018208;28;20441;-76
2021/12/31 05:34:40;;;;;;;6.10;2.47;;;12.30;1.00;;;;;;5036328;28;20374;-76
2021/12/31 05:37:27;;;;;;;4.00;1.80;;;12.20;1.00;;;;;;5026066;28;20401;-76
2021/12/31 05:39:58;;;;;;;10.47;2.17;;;12.30;1.00;;;;;;5014949;28;20430;-77
2021/12/31 05:42:24;;;;;;;2.63;1.90;;;12.20;1.00;;;;;;5035948;28;20441;-76
2021/12/31 05:44:52;;;;;;;2.90;2.10;;;12.20;1.00;;;;;;5035146;28;20393;-77
2021/12/31 05:50:40;;;;;;;5.50;1.77;;;12.20;1.00;;;;;;5028772;28;20425;-76
2021/12/31 05:53:24;;;;;;;2.90;1.77;;;12.10;1.00;;;;;;5014128;28;20474;-77
2021/12/31 05:56:05;;;;;;;3.03;2.30;;;12.10;1.00;;;;;;5031146;28;20412;-77
2021/12/31 05:58:40;;;;;;;2.20;2.00;;;12.00;1.00;;;;;;5035534;28;20461;-77
2021/12/31 06:01:06;;;;;;;5.83;2.57;;;12.00;1.00;;;;;;5035073;28;20872;-76
2021/12/31 06:03:33;;;;;;;3.97;2.50;;;11.90;1.00;;;;;;5017672;28;20407;-77
2021/12/31 06:06:00;;;;;;;2.60;2.07;;;11.90;1.00;;;;;;5011487;28;20491;-77
2021/12/31 06:08:26;;;;;;;6.17;2.27;;;11.90;1.00;;;;;;5028132;28;20399;-76
2021/12/31 06:10:53;;;;;;;5.77;2.47;;;11.80;1.00;;;;;;5034940;28;20892;-76
2021/12/31 06:14:00;;;;;;;2.50;1.63;;;11.70;1.00;;;;;;5020602;28;20913;-76
2021/12/31 06:16:38;;;;;;;1.60;1.47;;;11.70;1.00;;;;;;5017910;28;20752;-76
2021/12/31 06:19:12;;;;;;;4.17;2.20;;;11.60;1.00;;;;;;5034866;28;20394;-76
2021/12/31 06:22:33;;;;;;;4.63;2.30;;;11.40;1.00;;;;;;5017027;28;20435;-76
2021/12/31 06:25:21;;;;;;;3.97;2.63;;;11.30;1.00;;;;;;5034769;28;20863;-77
2021/12/31 06:27:52;;;;;;;2.40;2.00;;;11.30;1.00;;;;;;5015595;28;20396;-76
2021/12/31 06:30:18;;;;;;;4.83;2.23;;;11.30;1.00;;;;;;5022303;28;20405;-76
2021/12/31 06:32:44;;;;;;;3.03;2.30;;;11.10;1.00;;;;;;5035172;28;20560;-76
2021/12/31 06:35:22;;;;;;;9.03;2.33;;;11.00;1.00;;;;;;5016150;28;20996;-76
2021/12/31 06:37:53;;;;;;;3.23;1.90;;;11.00;1.00;;;;;;5015469;28;20167;-76
2021/12/31 06:40:23;;;;;;;5.10;2.33;;;10.90;1.00;;;;;;5023062;28;20472;-76
2021/12/31 06:42:58;;;;;;;2.03;1.93;;;10.80;1.00;;;;;;5032046;28;20469;-76
2021/12/31 06:45:28;;;;;;;2.50;1.77;;;10.70;1.00;;;;;;5022950;28;20960;-76
2021/12/31 06:47:58;;;;;;;2.70;2.07;;;10.70;1.00;;;;;;5032245;28;20869;-77
2021/12/31 06:50:34;;;;;;;3.20;1.97;;;10.60;1.00;;;;;;5022730;28;20963;-76
2021/12/31 06:53:01;;;;;;;4.73;2.27;;;10.50;1.00;;;;;;5020846;28;20874;-76
2021/12/31 06:55:34;;;;;;;1.87;1.73;;;10.50;1.00;;;;;;5005898;28;20519;-77
2021/12/31 06:58:04;;;;;;;2.90;2.20;;;10.40;1.00;;;;;;5015674;28;20403;-76
2021/12/31 07:00:46;;;;;;;3.27;2.10;;;10.30;1.00;;;;;;5034671;28;20410;-76
2021/12/31 07:03:28;;;;;;;2.47;2.27;;;10.20;1.00;;;;;;5034417;28;20411;-76
2021/12/31 07:05:58;;;;;;;5.80;2.57;;;10.20;1.00;;;;;;5033446;28;20469;-76
2021/12/31 07:08:28;;;;;;;4.13;2.87;;;10.30;1.00;;;;;;5033958;28;20418;-76
2021/12/31 07:11:04;;;;;;;5.43;2.03;;;10.30;1.00;;;;;;5019360;28;20435;-76
2021/12/31 07:13:57;;;;;;;3.00;2.20;;;10.20;1.00;;;;;;5028766;28;20493;-76
2021/12/31 07:16:28;;;;;;;3.63;2.00;;;10.10;1.00;;;;;;5033687;28;20423;-76
2021/12/31 07:18:58;;;;;;;8.93;2.90;;;10.10;1.00;;;;;;5027818;28;20438;-76
2021/12/31 07:21:24;;;;;;;5.47;2.33;;;10.10;1.00;;;;;;5027637;28;20917;-76
2021/12/31 07:23:49;;;;;;;2.40;2.00;;;10.10;1.00;;;;;;5033473;28;20413;-76
2021/12/31 07:26:39;;;;;;;3.47;1.97;;;10.10;1.00;;;;;;5028001;28;20191;-76
2021/12/31 07:29:05;;;;;;;2.43;2.20;;;10.10;1.00;;;;;;5034490;28;20174;-76
2021/12/31 07:31:40;;;;;;;3.20;2.20;;;10.10;1.00;;;;;;5032349;28;20472;-76
2021/12/31 07:34:16;;;;;;;2.80;2.00;;;10.10;1.00;;;;;;5015669;28;20227;-76
2021/12/31 07:36:42;;;;;;;4.97;2.10;;;10.00;1.00;;;;;;5009027;28;20503;-76
2021/12/31 07:39:12;;;;;;;3.63;2.37;;;10.00;1.00;;;;;;5024033;28;20418;-76
2021/12/31 07:41:41;;;;;;;2.67;2.40;;;10.00;1.00;;;;;;5018365;28;20933;-76
2021/12/31 07:44:23;;;;;;;8.10;2.73;;;10.00;1.00;;;;;;5025090;28;20404;-77
2021/12/31 07:46:52;;;;;;;2.50;2.10;;;9.90;1.00;;;;;;5012350;28;20404;-77
2021/12/31 07:49:28;;;;;;;4.23;2.20;;;9.90;1.00;;;;;;5033664;28;20442;-77
2021/12/31 07:51:54;;;;;;;2.00;1.80;;;9.90;1.00;;;;;;5003271;28;20464;-77
2021/12/31 07:54:28;;;;;;;2.97;2.37;;;10.00;1.00;;;;;;4992299;28;20530;-77
2021/12/31 07:56:54;;;;;;;2.37;2.20;;;10.00;1.00;;;;;;5015162;28;20409;-77
2021/12/31 07:59:22;;;;;;;2.97;2.40;;;10.00;1.00;;;;;;5032061;28;20924;-77
2021/12/31 08:01:58;;;;;;;6.97;2.20;;;10.00;1.00;;;;;;5011026;28;20798;-77
2021/12/31 08:04:34;;;;;;;2.80;2.07;;;10.00;1.00;;;;;;5025033;28;20397;-77
2021/12/31 08:07:06;;;;;;;3.43;2.10;;;10.10;1.00;;;;;;5025690;28;20750;-77
2021/12/31 08:09:46;;;;;;;2.03;1.80;;;10.20;1.00;;;;;;4998300;28;20946;-77
2021/12/31 08:12:16;;;;;;;2.40;2.20;;;10.30;1.00;;;;;;5028845;28;20960;-77
2021/12/31 08:14:42;;;;;;;2.23;1.83;;;10.40;1.00;;;;;;5019838;28;20416;-77
2021/12/31 08:17:37;;;;;;;1.37;1.23;;;10.40;1.00;;;;;;5015911;28;20438;-77
2021/12/31 08:20:16;;;;;;;2.10;1.73;;;10.40;1.00;;;;;;5033339;28;20439;-77
2021/12/31 08:22:42;;;;;;;2.80;1.60;;;10.40;1.00;;;;;;5015697;28;20581;-77
2021/12/31 08:25:19;;;;;;;3.37;2.47;;;10.50;1.00;;;;;;5030791;28;20490;-77
2021/12/31 08:27:52;;;;;;;3.00;2.50;;;10.50;1.00;;;;;;5031995;28;20776;-77
2021/12/31 08:30:28;;;;;;;1.50;1.40;;;10.50;1.00;;;;;;5020055;28;20407;-76
2021/12/31 08:33:04;;;;;;;2.47;2.27;;;10.60;1.00;;;;;;5033488;28;20442;-76
2021/12/31 08:35:40;;;;;;;2.60;2.40;;;10.60;1.00;;;;;;5021389;28;20425;-76
2021/12/31 08:38:51;;;;;;;2.47;2.27;;;10.70;1.00;;;;;;5037210;28;20389;-76
2021/12/31 08:41:23;;;;;;;2.37;2.17;;;10.70;1.00;;;;;;5036944;28;20425;-76
2021/12/31 08:43:52;;;;;;;1.70;1.60;;;10.70;1.00;;;;;;5017737;28;20374;-77
2021/12/31 08:46:20;;;;;;;4.90;2.00;;;10.80;1.00;;;;;;5030011;28;20409;-77
2021/12/31 08:48:49;;;;;;;2.07;1.93;;;10.90;1.00;;;;;;5026564;28;20415;-77
2021/12/31 08:51:16;;;;;;;3.00;1.90;;;10.90;1.00;;;;;;5020455;28;20419;-77
2021/12/31 08:54:10;;;;;;;2.90;2.30;;;10.90;1.00;;;;;;5036338;28;20457;-78
2021/12/31 08:56:43;;;;;;;3.07;1.90;;;10.90;1.00;;;;;;5017497;28;20433;-78
2021/12/31 08:59:13;;;;;;;1.93;1.83;;;11.00;1.00;;;;;;5030497;28;20418;-77
2021/12/31 09:01:41;;;;;;;5.17;2.77;;;11.00;1.00;;;;;;5023578;28;20404;-77
2021/12/31 09:04:09;;;;;;;3.70;2.20;;;11.00;1.00;;;;;;5036230;28;20410;-77
2021/12/31 09:06:35;;;;;;;5.57;2.60;;;11.10;1.00;;;;;;5006816;28;20419;-77
2021/12/31 09:09:16;;;;;;;2.77;2.50;;;11.10;1.00;;;;;;5008960;28;20390;-78
2021/12/31 09:11:58;;;;;;;7.93;3.37;;;11.20;1.00;;;;;;5033439;28;20444;-78
2021/12/31 09:14:28;;;;;;;3.33;2.83;;;11.30;1.00;;;;;;5019173;28;20506;-76
2021/12/31 09:16:54;;;;;;;5.80;2.73;;;11.30;1.00;;;;;;5023771;28;20431;-76
2021/12/31 09:19:34;;;;;;;2.57;2.37;;;11.30;1.00;;;;;;5022245;28;20894;-76
2021/12/31 09:22:03;;;;;;;3.40;2.60;;;11.40;1.00;;;;;;5019871;28;20451;-76
2021/12/31 09:24:39;;;;;;;3.20;2.90;;;11.50;1.00;;;;;;5032920;28;20520;-76
2021/12/31 09:27:10;;;;;;;7.03;2.73;;;11.50;1.00;;;;;;5018096;28;20772;-78
2021/12/31 09:29:40;;;;;;;4.13;2.73;;;8.40;1.00;;;;;;5017898;28;20421;-77
2021/12/31 09:32:16;;;;;;;5.13;3.20;;;11.60;1.00;;;;;;5027938;28;20554;-77
2021/12/31 09:34:44;;;;;;;3.17;2.60;;;11.60;1.00;;;;;;5023493;28;20414;-78
2021/12/31 09:37:11;;;;;;;11.33;3.87;;;11.60;1.00;;;;;;5018014;28;20427;-77
2021/12/31 09:39:37;;;;;;;3.77;2.57;;;11.70;1.00;;;;;;5035821;28;20414;-77
2021/12/31 09:42:05;;;;;;;5.17;2.87;;;11.80;1.00;;;;;;5034076;28;20795;-77
2021/12/31 09:44:32;;;;;;;4.53;3.23;;;11.80;1.00;;;;;;5032406;28;20409;-78
2021/12/31 09:46:58;;;;;;;5.40;2.90;;;11.80;1.00;;;;;;5027195;28;20787;-78
2021/12/31 09:49:23;;;;;;;3.17;2.80;;;11.90;1.00;;;;;;5033058;28;20437;-77
2021/12/31 09:51:49;;;;;;;4.60;2.67;;;12.00;1.00;;;;;;5028491;28;20718;-77
2021/12/31 09:54:17;;;;;;;2.83;2.63;;;12.30;1.00;;;;;;5033104;28;20176;-77
2021/12/31 09:56:42;;;;;;;3.17;2.90;;;12.30;1.00;;;;;;5029525;28;20267;-77
2021/12/31 09:59:11;;;;;;;5.33;3.20;;;12.40;1.00;;;;;;5035247;28;20480;-77
2021/12/31 10:01:50;;;;;;;3.27;2.33;;;12.50;1.00;;;;;;5034377;28;20697;-77
2021/12/31 10:04:17;;;;;;;4.40;3.27;;;12.50;1.00;;;;;;5034453;28;20777;-77
2021/12/31 10:07:12;;;;;;;4.60;2.53;;;12.60;1.00;;;;;;5010473;28;20524;-77
2021/12/31 10:09:40;;;;;;;2.03;1.90;;;12.60;1.00;;;;;;4969516;28;20442;-77
2021/12/31 10:12:07;;;;;;;2.80;2.13;;;12.60;1.00;;;;;;4973403;28;20469;-77
2021/12/31 10:14:34;;;;;;;1.80;1.70;;;12.60;1.00;;;;;;4973101;28;20512;-77
2021/12/31 10:17:00;;;;;;;2.20;2.00;;;12.60;1.00;;;;;;4965541;28;21027;-77
2021/12/31 10:19:26;;;;;;;2.47;2.00;;;12.60;1.00;;;;;;4949807;28;20496;-77
2021/12/31 10:21:54;;;;;;;2.40;2.10;;;12.50;1.00;;;;;;4964216;28;20209;-77
2021/12/31 10:24:25;;;;;;;4.10;1.53;;;12.50;1.00;;;;;;4962058;28;20187;-77
2021/12/31 10:26:58;;;;;;;3.30;2.10;;;12.50;1.00;;;;;;4964752;28;20441;-79
2021/12/31 10:29:25;;;;;;;2.23;1.87;;;12.50;1.00;;;;;;4967791;28;20434;-76
2021/12/31 10:31:52;;;;;;;2.27;2.10;;;12.60;1.00;;;;;;4957048;28;20741;-75
2021/12/31 10:34:47;;;;;;;1.73;1.63;;;12.60;1.00;;;;;;4966047;28;20442;-79
2021/12/31 10:37:16;;;;;;;1.97;1.77;;;12.70;1.00;;;;;;4917911;29;20933;-77
2021/12/31 10:39:42;;;;;;;3.10;1.73;;;12.80;1.00;;;;;;4918946;29;20854;-76
2021/12/31 10:42:08;;;;;;;1.40;1.30;;;12.90;1.00;;;;;;4919342;29;20452;-77
2021/12/31 10:44:48;;;;;;;3.63;1.90;;;13.00;1.00;;;;;;4925383;29;20439;-77
2021/12/31 10:47:23;;;;;;;1.83;1.73;;;13.00;1.00;;;;;;4972547;28;20946;-77
2021/12/31 10:50:00;;;;;;;5.67;1.50;;;13.20;1.00;;;;;;4960178;28;20947;-78
2021/12/31 10:52:33;;;;;;;2.03;1.40;;;13.30;1.00;;;;;;4956366;28;20930;-77
2021/12/31 10:55:03;;;;;;;5.90;1.63;;;13.30;1.00;;;;;;4970360;28;20410;-76
2021/12/31 10:57:38;;;;;;;2.10;1.63;;;13.40;1.00;;;;;;4969186;28;20413;-76
2021/12/31 11:00:06;;;;;;;2.77;1.20;;;13.50;1.00;;;;;;4970970;28;20520;-76
2021/12/31 11:02:33;;;;;;;1.30;1.20;;;13.50;1.00;;;;;;4972116;28;20415;-76
2021/12/31 11:04:59;;;;;;;2.40;1.13;;;13.50;1.00;;;;;;4972049;28;20458;-77
2021/12/31 11:07:28;;;;;;;2.30;1.33;;;13.70;1.00;;;;;;4971867;28;20441;-76
2021/12/31 11:09:56;;;;;;;2.27;1.10;;;13.80;1.00;;;;;;4955686;28;20249;-76
2021/12/31 11:12:22;;;;;;;10.83;1.70;;;13.80;1.00;;;;;;4968120;28;20468;-76
2021/12/31 11:14:50;;;;;;;2.00;1.53;;;13.90;1.00;;;;;;5006665;28;20448;-76
2021/12/31 11:17:17;;;;;;;4.10;1.13;;;13.80;1.00;;;;;;4993535;28;20463;-76
2021/12/31 11:19:44;;;;;;;1.40;1.30;;;14.10;1.00;;;;;;5011425;28;20398;-76
2021/12/31 11:22:13;;;;;;;1.40;1.10;;;14.20;1.00;;;;;;5013312;28;20467;-76
2021/12/31 11:24:39;;;;;;;0.97;0.87;;;14.30;1.00;;;;;;5006740;28;20391;-76
2021/12/31 11:27:35;;;;;;;0.90;0.90;;;14.40;1.00;;;;;;5013025;28;20424;-76
2021/12/31 11:30:03;;;;;;;1.37;1.10;;;14.40;1.00;;;;;;4942756;29;20926;-76
2021/12/31 11:33:08;;;;;;;1.00;1.00;;;14.40;1.00;;;;;;4948622;29;20530;-76
2021/12/31 11:35:40;;;;;;;1.63;1.00;;;14.40;1.00;;;;;;4917627;29;20788;-76
2021/12/31 11:38:14;;;;;;;2.70;1.00;;;14.40;1.00;;;;;;4915904;29;20472;-76
2021/12/31 11:40:49;;;;;;;1.93;1.20;;;14.40;1.00;;;;;;4910363;29;20814;-76
2021/12/31 11:43:26;;;;;;;2.13;1.20;;;14.50;1.00;;;;;;4915991;29;20543;-76
2021/12/31 11:46:10;;;;;;;1.23;1.10;;;14.40;1.00;;;;;;4896716;29;20533;-76
2021/12/31 11:51:18;;;;;;;1.70;1.17;;;14.40;1.00;;;;;;4924165;29;20437;-76
2021/12/31 11:53:58;;;;;;;1.60;1.50;;;14.40;1.00;;;;;;4929435;29;20461;-76
2021/12/31 11:56:33;;;;;;;5.80;1.47;;;14.40;1.00;;;;;;4910854;29;20402;-76
2021/12/31 11:59:24;;;;;;;1.53;1.30;;;14.50;1.00;;;;;;4901692;29;20817;-76
2021/12/31 12:02:09;;;;;;;1.50;0.97;;;14.50;1.00;;;;;;4876719;29;20438;-76
2021/12/31 12:04:39;;;;;;;2.03;1.20;;;14.50;1.00;;;;;;4876117;29;20947;-76
2021/12/31 12:07:10;;;;;;;3.13;1.23;;;14.40;1.00;;;;;;4857529;29;20443;-76
2021/12/31 12:09:37;;;;;;;3.83;1.33;;;14.50;1.00;;;;;;4858804;29;20425;-75
2021/12/31 12:12:07;;;;;;;2.00;1.23;;;14.60;1.00;;;;;;4895000;29;21010;-75
2021/12/31 12:14:45;;;;;;;2.83;1.70;;;14.60;1.00;;;;;;4917346;29;20192;-76
2021/12/31 12:17:31;;;;;;;1.30;1.00;;;14.70;1.00;;;;;;4917685;29;20426;-77
2021/12/31 12:20:02;;;;;;;2.20;1.67;;;14.60;1.00;;;;;;4898637;29;20484;-77
2021/12/31 12:22:33;;;;;;;1.57;1.40;;;14.70;1.00;;;;;;4897545;29;20419;-77
2021/12/31 12:25:07;;;;;;;1.60;1.50;;;14.70;1.00;;;;;;4893335;29;20438;-77
2021/12/31 12:27:33;;;;;;;2.30;1.60;;;14.60;1.00;;;;;;4882523;29;20420;-77
2021/12/31 12:30:03;;;;;;;2.43;1.67;;;14.60;1.00;;;;;;4890747;29;20396;-78
2021/12/31 12:34:58;;;;;;;2.37;1.53;;;14.60;1.00;;;;;;4892990;29;20517;-77
2021/12/31 12:37:28;;;;;;;1.77;1.40;;;14.60;1.00;;;;;;4897342;29;20507;-77
2021/12/31 12:40:00;;;;;;;1.80;1.70;;;14.60;1.00;;;;;;4977914;28;20307;-77
2021/12/31 12:42:26;;;;;;;1.43;1.33;;;14.60;1.00;;;;;;4985953;28;20433;-78
2021/12/31 12:45:03;;;;;;;1.43;1.33;;;14.60;1.00;;;;;;4991109;28;20436;-78
2021/12/31 12:47:29;;;;;;;2.53;1.53;;;14.60;1.00;;;;;;4987194;28;20436;-76
2021/12/31 12:49:59;;;;;;;4.90;1.23;;;14.80;1.00;;;;;;4989834;28;20443;-76
2021/12/31 12:52:26;;;;;;;1.43;1.00;;;14.80;1.00;;;;;;4989626;28;20558;-76
2021/12/31 12:55:08;;;;;;;2.07;1.40;;;14.80;1.00;;;;;;4991375;28;20599;-76
2021/12/31 12:57:33;;;;;;;10.00;1.70;;;14.80;1.00;;;;;;4982835;28;20821;-75
2021/12/31 12:59:59;;;;;;;7.70;1.50;;;14.80;1.00;;;;;;5015455;28;20507;-76
2021/12/31 13:02:45;;;;;;;1.83;1.30;;;14.80;1.00;;;;;;5005729;28;20264;-76
2021/12/31 13:05:16;;;;;;;1.27;1.17;;;14.70;1.00;;;;;;5014052;28;20180;-76
2021/12/31 13:07:51;;;;;;;3.23;1.40;;;14.70;1.00;;;;;;5015381;28;20420;-75
2021/12/31 13:10:17;;;;;;;2.83;1.23;;;14.70;1.00;;;;;;5004366;28;20428;-76
2021/12/31 13:12:43;;;;;;;3.00;1.50;;;14.60;1.00;;;;;;5012771;28;20440;-76
2021/12/31 13:15:09;;;;;;;1.80;1.50;;;14.50;1.00;;;;;;5004073;28;21016;-76
2021/12/31 13:17:36;;;;;;;1.57;1.10;;;14.50;1.00;;;;;;5009986;28;20637;-76
2021/12/31 13:20:11;;;;;;;4.70;2.00;;;14.40;1.00;;;;;;5012004;28;20387;-76
2021/12/31 13:22:37;;;;;;;2.13;1.57;;;14.40;1.00;;;;;;5014522;28;20409;-75
2021/12/31 13:25:05;;;;;;;7.73;1.73;;;14.40;1.00;;;;;;5013946;28;20943;-77
2021/12/31 13:27:31;;;;;;;1.87;1.47;;;14.30;1.00;;;;;;4987766;28;20506;-77
2021/12/31 13:30:11;;;;;;;1.33;1.20;;;14.20;1.00;;;;;;5003577;28;20399;-77
2021/12/31 13:32:39;;;;;;;2.67;1.63;;;14.20;1.00;;;;;;4997920;28;20464;-77
2021/12/31 13:35:07;;;;;;;1.27;1.17;;;14.20;1.00;;;;;;5013285;28;20418;-77
2021/12/31 13:37:34;;;;;;;1.40;1.20;;;14.20;1.00;;;;;;5011552;28;20455;-77
2021/12/31 13:40:20;;;;;;;1.70;1.60;;;14.30;1.00;;;;;;5009578;28;20886;-77
2021/12/31 13:43:04;;;;;;;7.13;1.70;;;14.40;1.00;;;;;;5004289;28;20439;-77